Time;durP1;ratioP1;P1;durP2;ratioP2;P2;SDS_P1;SDS_P2;PMS_P1;PMS_P2;Temp;Humidity;BMP_temperature;BMP_pressure;BME280_temperature;BME280_humidity;BME280_pressure;Samples;Min_cycle;Max_cycle;Signal;HPM_P1;HPM_P2
2021/08/27 00:04:19;;;;;;;3.50;1.70;;;;;;;16.47;65.92;99976.22;10298705;28;20558;-61
2021/08/27 00:09:20;;;;;;;2.22;1.15;;;;;;;16.39;66.42;99973.50;10295441;28;20595;-61
2021/08/27 00:14:22;;;;;;;4.45;1.23;;;;;;;16.37;66.43;99975.53;10291382;28;20060;-61
2021/08/27 00:19:23;;;;;;;2.55;1.05;;;;;;;16.33;66.19;99964.28;10305154;28;20109;-63
2021/08/27 00:24:25;;;;;;;3.25;1.50;;;;;;;16.28;66.27;99973.88;10292667;28;20125;-61
2021/08/27 00:29:26;;;;;;;2.90;1.27;;;;;;;16.24;66.80;99968.81;10292862;28;20126;-62
2021/08/27 00:34:28;;;;;;;2.83;0.93;;;;;;;16.15;66.31;99959.06;10290404;28;20070;-61
2021/08/27 00:39:30;;;;;;;1.40;0.85;;;;;;;16.05;67.07;99956.56;10287234;28;20056;-61
2021/08/27 00:44:31;;;;;;;2.17;1.52;;;;;;;15.97;67.22;99975.31;10284491;28;20216;-62
2021/08/27 00:49:33;;;;;;;2.28;1.02;;;;;;;15.97;67.55;99969.13;10285056;28;20169;-61
2021/08/27 00:54:34;;;;;;;3.20;1.17;;;;;;;15.99;67.31;99967.09;10293330;28;20133;-62
2021/08/27 00:59:36;;;;;;;4.53;1.38;;;;;;;15.95;67.25;99968.47;10294305;28;20129;-62
2021/08/27 01:04:41;;;;;;;2.75;1.60;;;;;;;15.70;67.67;99977.28;10292482;28;20399;-62
2021/08/27 01:10:15;;;;;;;5.30;1.52;;;;;;;15.78;68.14;99973.78;10283853;28;20042;-61
2021/08/27 01:15:27;;;;;;;4.85;1.88;;;;;;;15.89;67.76;99972.63;10287153;28;20674;-62
2021/08/27 01:20:58;;;;;;;4.60;1.42;;;;;;;15.89;67.46;99970.78;10288201;28;20492;-61
2021/08/27 01:26:02;;;;;;;2.17;1.38;;;;;;;15.88;67.55;99974.50;10280600;28;20133;-63
2021/08/27 01:31:25;;;;;;;2.53;1.58;;;;;;;15.86;67.53;99983.69;10289586;28;20809;-62
2021/08/27 01:36:31;;;;;;;3.35;1.30;;;;;;;15.85;67.42;99985.56;10283244;28;20074;-61
2021/08/27 01:41:39;;;;;;;2.63;0.90;;;;;;;15.89;67.42;99980.69;10288145;28;20129;-60
2021/08/27 01:46:42;;;;;;;3.50;2.22;;;;;;;15.96;67.12;99992.44;10290294;28;20169;-61
2021/08/27 01:51:46;;;;;;;3.20;2.13;;;;;;;15.94;66.87;99997.13;10293044;28;20500;-63
2021/08/27 01:56:49;;;;;;;4.37;1.23;;;;;;;15.96;66.77;100000.50;10294822;28;20462;-62
2021/08/27 02:01:51;;;;;;;1.70;1.23;;;;;;;15.79;67.29;100001.47;10285842;28;20685;-62
2021/08/27 02:06:54;;;;;;;2.78;1.90;;;;;;;15.79;66.90;100004.97;10287986;28;20055;-61
2021/08/27 02:11:56;;;;;;;4.55;1.75;;;;;;;15.64;66.44;99988.66;10293216;28;20632;-61
2021/08/27 02:16:57;;;;;;;5.68;1.20;;;;;;;15.59;67.20;100001.69;10308541;28;20880;-61
2021/08/27 02:22:00;;;;;;;4.93;2.03;;;;;;;15.78;66.60;99997.09;10292770;28;20122;-61
2021/08/27 02:27:03;;;;;;;2.60;1.67;;;;;;;15.78;66.46;100000.63;10293716;28;20504;-62
2021/08/27 02:32:09;;;;;;;3.22;0.90;;;;;;;15.65;66.38;99994.84;10294184;28;20133;-62
2021/08/27 02:37:13;;;;;;;3.42;1.80;;;;;;;15.49;66.93;99988.44;10301049;28;20499;-62
2021/08/27 02:42:14;;;;;;;3.45;1.15;;;;;;;15.26;66.74;99985.47;10290293;28;20444;-63
2021/08/27 02:47:16;;;;;;;4.15;1.70;;;;;;;15.34;66.51;99990.88;10292028;28;20201;-63
2021/08/27 02:52:30;;;;;;;2.70;1.10;;;;;;;15.26;67.58;99995.38;10285868;28;20137;-61
2021/08/27 02:57:37;;;;;;;3.22;1.88;;;;;;;15.52;66.58;99989.94;10288581;28;20054;-61
2021/08/27 03:02:40;;;;;;;2.60;1.30;;;;;;;15.32;66.88;100000.91;10292918;28;20141;-61
2021/08/27 03:07:46;;;;;;;3.08;1.67;;;;;;;15.51;66.69;100010.56;10285078;28;20061;-61
2021/08/27 03:12:59;;;;;;;4.00;1.08;;;;;;;15.58;66.17;100020.66;10301723;28;20134;-66
2021/08/27 03:18:08;;;;;;;4.25;1.30;;;;;;;15.56;66.38;100013.59;10307197;28;22021;-62
2021/08/27 03:23:12;;;;;;;2.45;1.02;;;;;;;15.50;66.18;100005.38;10291824;28;20069;-62
2021/08/27 03:28:19;;;;;;;2.30;1.10;;;;;;;15.51;66.37;100005.19;10287922;28;20133;-62
2021/08/27 03:33:23;;;;;;;3.00;1.17;;;;;;;15.46;66.20;100001.31;10290301;28;20058;-61
2021/08/27 03:38:26;;;;;;;2.67;1.23;;;;;;;15.43;66.28;100002.47;10293808;28;20134;-63
2021/08/27 03:43:30;;;;;;;2.13;1.00;;;;;;;15.39;66.25;100006.50;10291728;28;20050;-65
2021/08/27 03:48:34;;;;;;;1.83;1.25;;;;;;;15.42;66.04;100010.69;10293474;28;20157;-62
2021/08/27 03:53:37;;;;;;;3.55;1.60;;;;;;;15.37;66.02;100016.53;10291094;28;20122;-61
2021/08/27 03:58:40;;;;;;;2.80;1.27;;;;;;;15.38;65.84;100005.63;10289699;28;20197;-63
2021/08/27 04:03:42;;;;;;;4.18;1.35;;;;;;;15.35;66.79;100015.84;10280979;28;20145;-61
2021/08/27 04:08:43;;;;;;;3.78;1.35;;;;;;;15.38;66.41;100015.53;10285956;28;20142;-61
2021/08/27 04:13:45;;;;;;;4.38;1.90;;;;;;;15.34;65.31;100004.31;10289300;28;20584;-61
2021/08/27 04:18:46;;;;;;;2.95;1.52;;;;;;;15.35;65.61;99999.75;10291268;28;20130;-60
2021/08/27 04:23:47;;;;;;;4.70;1.95;;;;;;;15.33;65.45;100007.97;10288651;28;20143;-62
2021/08/27 04:28:49;;;;;;;3.70;1.63;;;;;;;15.13;65.48;99991.28;10291627;28;20129;-61
2021/08/27 04:33:50;;;;;;;3.78;1.40;;;;;;;14.76;66.33;100004.97;10299811;28;20146;-60
2021/08/27 04:38:52;;;;;;;3.65;1.50;;;;;;;14.71;67.04;99997.38;10286903;28;20129;-62
2021/08/27 04:43:54;;;;;;;4.38;1.60;;;;;;;14.83;66.78;100004.19;10298748;28;20055;-62
2021/08/27 04:48:55;;;;;;;2.85;1.20;;;;;;;15.05;67.49;100015.34;10292805;28;20133;-62
2021/08/27 04:53:57;;;;;;;6.10;1.42;;;;;;;15.24;66.13;100013.44;10297658;28;20053;-62
2021/08/27 04:58:58;;;;;;;3.22;1.33;;;;;;;15.38;66.38;100018.22;10301653;28;20142;-61
2021/08/27 05:03:59;;;;;;;5.78;1.58;;;;;;;15.47;65.78;100030.66;10292341;28;20114;-62
2021/08/27 05:09:01;;;;;;;5.15;1.73;;;;;;;15.61;65.70;100033.72;10278799;28;20060;-61
2021/08/27 05:14:02;;;;;;;3.95;1.15;;;;;;;15.47;66.15;100035.19;10290531;28;20538;-61
2021/08/27 05:19:04;;;;;;;6.85;1.50;;;;;;;15.34;66.96;100036.47;10291906;28;20073;-62
2021/08/27 05:24:06;;;;;;;2.33;1.20;;;;;;;15.54;65.04;100037.06;10300825;28;20050;-60
2021/08/27 05:29:07;;;;;;;3.17;1.17;;;;;;;15.58;65.54;100034.06;10308875;28;20561;-61
2021/08/27 05:34:08;;;;;;;5.28;1.38;;;;;;;15.80;65.60;100046.91;10299119;28;20046;-61
2021/08/27 05:39:10;;;;;;;3.97;1.63;;;;;;;15.90;65.17;100046.78;10302546;28;20062;-62
2021/08/27 05:44:11;;;;;;;2.35;1.35;;;;;;;15.94;65.75;100047.28;10303548;28;20076;-62
2021/08/27 05:49:13;;;;;;;8.02;1.77;;;;;;;16.02;65.00;100055.38;10292849;28;20078;-63
2021/08/27 05:54:14;;;;;;;1.88;1.15;;;;;;;16.07;64.93;100055.72;10297580;28;20141;-63
2021/08/27 05:59:16;;;;;;;2.47;1.33;;;;;;;15.97;65.20;100058.53;10293944;28;20501;-61
2021/08/27 06:04:17;;;;;;;4.63;1.92;;;;;;;16.05;65.36;100066.63;10301268;28;20129;-63
2021/08/27 06:09:19;;;;;;;4.65;1.67;;;;;;;16.19;65.07;100075.88;10295189;28;20062;-60
2021/08/27 06:14:25;;;;;;;5.47;1.83;;;;;;;16.20;64.99;100076.75;10298418;28;20058;-60
2021/08/27 06:19:26;;;;;;;6.22;2.10;;;;;;;16.28;63.77;100090.19;10293040;28;20042;-61
2021/08/27 06:24:28;;;;;;;4.32;2.00;;;;;;;16.38;62.52;100076.59;10286821;28;20054;-63
2021/08/27 06:29:31;;;;;;;2.72;1.60;;;;;;;16.32;63.38;100075.41;10302561;28;20066;-62
2021/08/27 06:34:33;;;;;;;10.20;2.33;;;;;;;16.38;64.05;100068.56;10295671;28;20061;-61
2021/08/27 06:39:35;;;;;;;4.32;2.55;;;;;;;16.54;63.80;100063.19;10296486;28;20608;-62
2021/08/27 06:44:36;;;;;;;3.13;1.90;;;;;;;16.56;63.25;100066.53;10307091;28;20082;-62
2021/08/27 06:49:37;;;;;;;2.80;1.80;;;;;;;16.49;63.27;100062.84;10304308;28;20140;-61
2021/08/27 06:54:39;;;;;;;3.70;2.08;;;;;;;16.46;63.75;100073.91;10303107;28;20069;-61
2021/08/27 06:59:40;;;;;;;4.70;2.53;;;;;;;16.44;63.71;100076.78;10305037;28;20138;-64
2021/08/27 07:04:42;;;;;;;3.03;2.30;;;;;;;16.22;63.13;100072.88;10303664;28;20060;-62
2021/08/27 07:09:43;;;;;;;4.85;2.22;;;;;;;16.40;64.24;100079.97;10299049;28;20161;-61
2021/08/27 07:14:49;;;;;;;2.95;1.55;;;;;;;16.46;63.67;100067.72;10297226;28;20477;-62
2021/08/27 07:19:50;;;;;;;3.45;1.63;;;;;;;16.65;63.35;100082.66;10299801;28;20573;-62
2021/08/27 07:24:52;;;;;;;8.15;2.15;;;;;;;16.65;63.45;100082.66;10300707;28;20108;-62
2021/08/27 07:29:53;;;;;;;3.53;1.42;;;;;;;17.07;61.37;100087.03;10304992;28;20462;-62
2021/08/27 07:34:55;;;;;;;6.35;1.50;;;;;;;16.84;60.92;100093.06;10301079;28;20772;-61
2021/08/27 07:39:57;;;;;;;6.13;1.77;;;;;;;16.96;61.77;100086.41;10305240;28;20064;-60
2021/08/27 07:44:58;;;;;;;2.10;1.13;;;;;;;17.22;60.35;100101.50;10303229;28;20125;-62
2021/08/27 07:50:00;;;;;;;4.20;2.22;;;;;;;17.37;61.08;100095.41;10296016;28;20149;-61
2021/08/27 07:55:02;;;;;;;2.70;1.58;;;;;;;17.63;59.82;100095.16;10302381;28;20133;-62
2021/08/27 08:00:05;;;;;;;3.17;1.33;;;;;;;17.47;60.58;100098.75;10304295;28;20497;-61
2021/08/27 08:05:07;;;;;;;3.53;1.20;;;;;;;17.36;60.27;100107.19;10299571;28;20455;-64
2021/08/27 08:10:09;;;;;;;3.38;1.17;;;;;;;17.11;60.84;100110.75;10298741;28;20054;-62
2021/08/27 08:15:11;;;;;;;2.63;1.33;;;;;;;17.11;60.06;100109.91;10297430;28;20054;-60
2021/08/27 08:20:12;;;;;;;2.97;1.40;;;;;;;17.01;60.68;100111.91;10301790;28;20117;-61
2021/08/27 08:25:15;;;;;;;4.25;1.90;;;;;;;17.06;60.75;100112.28;10304559;28;20042;-62
2021/08/27 08:30:16;;;;;;;2.95;2.10;;;;;;;17.27;61.25;100112.56;10301697;28;20070;-64
2021/08/27 08:35:19;;;;;;;2.08;1.35;;;;;;;17.61;60.38;100108.81;10297467;28;20045;-61
2021/08/27 08:40:20;;;;;;;3.70;2.10;;;;;;;17.99;59.70;100109.00;10301826;28;20732;-61
2021/08/27 08:45:22;;;;;;;2.38;1.48;;;;;;;18.27;58.17;100088.84;10303318;28;20062;-61
2021/08/27 08:50:23;;;;;;;1.45;1.30;;;;;;;18.80;56.61;100097.06;10316930;28;20060;-62
2021/08/27 08:55:26;;;;;;;2.25;1.13;;;;;;;19.19;54.83;100096.06;10296093;28;20061;-62
2021/08/27 09:00:27;;;;;;;2.15;0.90;;;;;;;18.78;54.14;100108.03;10308885;28;20069;-61
2021/08/27 09:05:29;;;;;;;2.53;1.20;;;;;;;18.72;54.90;100111.47;10300047;28;20053;-62
2021/08/27 09:10:40;;;;;;;3.35;1.00;;;;;;;18.93;54.64;100102.72;10297782;28;20265;-61
2021/08/27 09:15:42;;;;;;;4.68;1.00;;;;;;;19.90;52.46;100098.34;10303667;28;20149;-62
2021/08/27 09:20:43;;;;;;;1.25;0.90;;;;;;;19.52;52.56;100098.44;10298100;28;20064;-61
2021/08/27 09:25:45;;;;;;;4.28;1.00;;;;;;;19.07;52.98;100101.91;10304160;28;20292;-61
2021/08/27 09:30:46;;;;;;;2.92;1.00;;;;;;;19.19;53.90;100098.78;10298374;28;20111;-61
2021/08/27 09:36:01;;;;;;;2.83;1.30;;;;;;;19.30;53.60;100100.19;10296845;28;20149;-61
2021/08/27 09:41:05;;;;;;;4.10;1.33;;;;;;;19.54;54.06;100096.38;10291460;28;20046;-61
2021/08/27 09:46:28;;;;;;;3.63;1.40;;;;;;;19.13;52.77;100104.91;10295141;28;20500;-61
2021/08/27 09:51:44;;;;;;;4.07;1.35;;;;;;;18.68;55.36;100104.75;10299716;28;20543;-61
2021/08/27 09:56:47;;;;;;;3.47;1.70;;;;;;;18.54;55.51;100106.38;10298984;28;20474;-61
2021/08/27 10:01:49;;;;;;;3.78;2.72;;;;;;;18.79;55.27;100104.31;10298563;28;20216;-65
2021/08/27 10:06:51;;;;;;;5.00;2.20;;;;;;;18.60;55.38;100102.94;10295871;28;20129;-62
2021/08/27 10:11:56;;;;;;;3.78;2.90;;;;;;;18.28;56.69;100107.50;10292297;28;20075;-62
2021/08/27 10:17:01;;;;;;;4.25;1.77;;;;;;;18.34;56.65;100097.88;10303107;28;20592;-60
2021/08/27 10:22:04;;;;;;;4.57;2.42;;;;;;;18.58;55.91;100102.28;10296343;28;20474;-62
2021/08/27 10:27:08;;;;;;;3.45;2.15;;;;;;;18.47;56.00;100089.22;10304371;28;20066;-61
2021/08/27 10:32:09;;;;;;;3.05;2.55;;;;;;;18.61;55.99;100079.50;10301945;28;20138;-61
2021/08/27 10:37:51;;;;;;;3.47;2.88;;;;;;;18.81;55.98;100096.03;10303361;28;20286;-61
2021/08/27 10:42:55;;;;;;;3.75;2.53;;;;;;;18.54;56.96;100106.38;10299458;28;20632;-61
2021/08/27 10:48:13;;;;;;;5.88;3.72;;;;;;;18.18;58.90;100096.97;10301704;28;20064;-60
2021/08/27 10:53:33;;;;;;;4.70;3.55;;;;;;;18.17;59.33;100089.06;10290726;28;20164;-60
2021/08/27 10:58:46;;;;;;;3.67;3.15;;;;;;;18.60;58.33;100088.63;10301811;28;20130;-61
2021/08/27 11:04:16;;;;;;;4.25;3.85;;;;;;;20.43;53.47;100077.34;10291226;28;20050;-60
2021/08/27 11:09:19;;;;;;;4.15;2.47;;;;;;;24.71;41.47;100066.34;10314515;28;20515;-61
2021/08/27 11:14:21;;;;;;;3.30;3.00;;;;;;;23.16;45.24;100061.78;10308818;28;20053;-62
2021/08/27 11:19:28;;;;;;;4.80;3.20;;;;;;;22.95;45.54;100061.78;10302968;28;20058;-63
2021/08/27 11:24:30;;;;;;;3.08;2.25;;;;;;;22.95;46.06;100056.34;10302985;28;20053;-66
2021/08/27 11:29:39;;;;;;;3.67;2.28;;;;;;;30.76;31.55;100044.78;10300834;28;20147;-63
2021/08/27 11:34:55;;;;;;;2.78;1.83;;;;;;;34.99;24.59;100040.69;10302908;28;20074;-62
2021/08/27 11:39:57;;;;;;;2.42;1.52;;;;;;;36.89;21.39;100035.38;10302968;28;20129;-62
2021/08/27 11:45:05;;;;;;;2.42;1.88;;;;;;;33.15;25.86;100026.81;10299913;28;20052;-62
2021/08/27 11:50:20;;;;;;;3.40;2.85;;;;;;;29.71;30.66;100023.94;10296313;28;20046;-62
2021/08/27 11:55:21;;;;;;;4.28;2.53;;;;;;;25.91;36.38;100012.53;10298139;28;20073;-62
2021/08/27 12:00:43;;;;;;;5.38;3.45;;;;;;;23.25;41.49;100033.34;10297283;28;20133;-62
2021/08/27 12:05:49;;;;;;;3.75;3.33;;;;;;;22.23;46.85;100033.50;10294931;28;20207;-62
2021/08/27 12:10:50;;;;;;;3.85;3.30;;;;;;;22.03;46.70;100028.88;10300665;28;20066;-64
2021/08/27 12:15:52;;;;;;;4.18;3.40;;;;;;;22.33;45.54;100025.84;10304585;28;20164;-62
2021/08/27 12:20:53;;;;;;;7.82;3.60;;;;;;;22.09;45.59;100029.94;10294149;28;20494;-62
2021/08/27 12:26:03;;;;;;;5.53;3.67;;;;;;;22.39;45.50;100029.59;10300776;28;20145;-62
2021/08/27 12:31:06;;;;;;;3.72;3.15;;;;;;;21.65;46.22;100023.13;10301629;28;20058;-62
2021/08/27 12:36:26;;;;;;;4.20;3.20;;;;;;;21.13;47.05;100020.72;10297103;28;20604;-63
2021/08/27 12:41:31;;;;;;;4.18;3.05;;;;;;;20.86;47.86;100024.28;10300562;28;20091;-63
2021/08/27 12:46:33;;;;;;;4.40;3.30;;;;;;;20.47;48.95;100031.81;10289442;28;20518;-62
2021/08/27 12:51:39;;;;;;;3.33;3.03;;;;;;;20.41;49.88;100025.31;10306524;28;20111;-63
2021/08/27 12:56:41;;;;;;;5.47;3.42;;;;;;;20.23;50.40;100033.06;10300529;28;20798;-63
2021/08/27 13:01:43;;;;;;;3.63;3.33;;;;;;;20.26;50.34;100029.97;10294550;28;20066;-63
2021/08/27 13:06:50;;;;;;;4.03;3.33;;;;;;;19.95;51.24;100041.88;10297021;28;20428;-63
2021/08/27 13:11:57;;;;;;;4.43;2.60;;;;;;;19.68;52.63;100038.84;10298155;28;20125;-64
2021/08/27 13:17:04;;;;;;;3.60;2.63;;;;;;;19.87;54.36;100044.69;10291202;28;20065;-62
2021/08/27 13:22:09;;;;;;;3.10;2.75;;;;;;;19.56;53.37;100033.09;10315456;28;20129;-63
2021/08/27 13:27:11;;;;;;;2.50;2.03;;;;;;;19.67;53.25;100037.16;10306625;28;20100;-62
2021/08/27 13:32:27;;;;;;;2.92;2.10;;;;;;;19.56;54.18;100024.13;10296572;28;20133;-62
2021/08/27 13:37:28;;;;;;;2.47;2.10;;;;;;;19.43;53.29;100028.34;10301331;28;20050;-62
2021/08/27 13:42:30;;;;;;;3.20;1.88;;;;;;;19.32;53.14;100026.13;10304948;28;20766;-63
2021/08/27 13:47:31;;;;;;;3.70;2.00;;;;;;;19.36;53.09;100016.59;10320783;28;20085;-62
2021/08/27 13:52:32;;;;;;;2.50;2.30;;;;;;;19.45;53.68;100017.34;10322460;28;20070;-63
2021/08/27 13:57:35;;;;;;;3.55;2.65;;;;;;;19.64;53.92;100015.94;10309016;28;20207;-62
2021/08/27 14:02:37;;;;;;;3.65;2.70;;;;;;;19.93;52.77;100015.06;10303522;28;20053;-64
2021/08/27 14:07:39;;;;;;;4.75;2.88;;;;;;;20.16;51.65;99997.84;10309421;28;20129;-60
2021/08/27 14:12:40;;;;;;;4.55;2.90;;;;;;;20.07;51.57;99994.44;10309577;28;20600;-63
2021/08/27 14:17:42;;;;;;;5.25;3.22;;;;;;;19.90;52.80;99998.41;10299870;28;20389;-62
2021/08/27 14:22:45;;;;;;;4.00;3.60;;;;;;;19.50;53.54;100003.28;10319606;28;20121;-61
2021/08/27 14:27:46;;;;;;;3.97;3.20;;;;;;;19.26;54.18;100002.59;10311593;28;20058;-60
2021/08/27 14:32:48;;;;;;;5.15;3.58;;;;;;;19.11;55.59;100001.72;10310987;28;20109;-61
2021/08/27 14:37:49;;;;;;;3.30;2.90;;;;;;;19.13;56.91;100013.19;10311170;28;20591;-61
2021/08/27 14:42:50;;;;;;;5.15;3.35;;;;;;;18.48;61.97;100015.41;10300804;28;20070;-61
2021/08/27 14:47:52;;;;;;;3.28;2.97;;;;;;;18.27;64.49;100014.25;10303693;28;20042;-61
2021/08/27 14:52:53;;;;;;;4.07;2.90;;;;;;;17.99;65.13;100024.69;10306807;28;20107;-62
2021/08/27 14:57:55;;;;;;;3.47;3.13;;;;;;;17.84;67.72;100036.19;10316277;28;20146;-60
2021/08/27 15:02:59;;;;;;;3.55;3.05;;;;;;;18.05;69.97;100037.47;10306512;28;20619;-60
2021/08/27 15:08:00;;;;;;;4.13;2.95;;;;;;;17.89;69.70;100033.00;10294230;28;20411;-61
2021/08/27 15:13:19;;;;;;;5.60;3.80;;;;;;;18.00;71.07;100024.53;10295231;28;20057;-62
2021/08/27 15:18:21;;;;;;;3.90;3.47;;;;;;;18.04;73.29;100024.16;10304049;28;20467;-61
2021/08/27 15:23:23;;;;;;;5.40;4.00;;;;;;;18.16;72.56;100012.78;10309672;28;20062;-61
2021/08/27 15:28:24;;;;;;;5.03;4.35;;;;;;;18.32;74.51;100011.84;10309774;28;20566;-61
2021/08/27 15:33:26;;;;;;;3.92;3.33;;;;;;;18.42;71.29;100010.75;10320790;28;20354;-61
2021/08/27 15:38:27;;;;;;;4.50;3.97;;;;;;;18.36;74.79;99999.69;10308347;28;20053;-62
2021/08/27 15:43:29;;;;;;;3.75;3.45;;;;;;;18.27;73.46;99992.69;10318238;28;20133;-61
2021/08/27 15:48:30;;;;;;;3.63;3.28;;;;;;;18.29;72.09;99993.34;10310300;28;20108;-62
2021/08/27 15:53:35;;;;;;;3.78;2.22;;;;;;;18.40;71.47;99996.63;10303161;28;20046;-61
2021/08/27 15:58:36;;;;;;;2.38;2.03;;;;;;;18.54;72.46;99994.00;10306593;28;20137;-61
2021/08/27 16:03:37;;;;;;;2.92;1.90;;;;;;;18.43;70.32;99985.50;10321295;28;20056;-61
2021/08/27 16:08:39;;;;;;;1.85;1.33;;;;;;;18.29;71.21;99990.66;10308245;28;20152;-61
2021/08/27 16:13:40;;;;;;;1.73;1.20;;;;;;;18.47;72.79;100001.13;10305707;28;20123;-62
2021/08/27 16:18:45;;;;;;;2.42;1.55;;;;;;;18.61;71.76;99999.47;10296686;28;20146;-61
2021/08/27 16:23:46;;;;;;;1.40;1.30;;;;;;;18.48;69.47;99993.88;10300830;28;20120;-62
2021/08/27 16:28:47;;;;;;;1.52;1.33;;;;;;;18.19;69.88;100011.59;10305152;28;20096;-60
2021/08/27 16:33:49;;;;;;;8.00;5.43;;;;;;;18.07;73.52;100007.66;10304786;28;20069;-60
2021/08/27 16:38:50;;;;;;;2.28;1.10;;;;;;;17.63;72.28;100012.56;10298548;28;20144;-62
2021/08/27 16:43:52;;;;;;;2.47;1.13;;;;;;;17.43;72.82;100022.91;10296383;28;20145;-62
2021/08/27 16:48:53;;;;;;;3.10;1.10;;;;;;;17.02;75.21;100016.81;10318183;28;20108;-60
2021/08/27 16:53:55;;;;;;;2.38;1.50;;;;;;;17.24;75.79;100026.00;10302284;28;20064;-61
2021/08/27 16:58:57;;;;;;;1.85;0.98;;;;;;;17.23;73.27;100011.69;10300345;28;20112;-61
2021/08/27 17:03:58;;;;;;;2.95;1.20;;;;;;;17.03;76.81;100016.63;10304104;28;20491;-61
2021/08/27 17:09:00;;;;;;;2.70;1.42;;;;;;;16.99;75.69;100009.09;10307855;28;20062;-61
2021/08/27 17:14:01;;;;;;;2.10;1.50;;;;;;;17.21;75.20;100002.16;10316882;28;20140;-61
2021/08/27 17:19:02;;;;;;;2.50;1.38;;;;;;;17.21;76.77;100011.06;10295504;28;20508;-62
2021/08/27 17:24:04;;;;;;;1.60;1.00;;;;;;;17.38;75.43;100013.69;10297378;28;20689;-62
2021/08/27 17:29:06;;;;;;;1.75;1.30;;;;;;;17.38;74.67;100019.91;10307781;28;20137;-64
2021/08/27 17:34:07;;;;;;;3.72;1.25;;;;;;;17.39;74.57;100016.19;10310021;28;20131;-61
2021/08/27 17:39:08;;;;;;;2.25;1.38;;;;;;;17.36;75.50;100018.41;10301782;28;20271;-62
2021/08/27 17:44:10;;;;;;;3.45;1.73;;;;;;;17.33;76.16;100024.13;10307215;28;21253;-63
2021/08/27 17:49:11;;;;;;;2.50;1.63;;;;;;;17.37;76.68;100030.84;10304565;28;20064;-62
2021/08/27 17:54:13;;;;;;;3.58;2.10;;;;;;;17.29;76.15;100020.94;10300511;28;20046;-62
2021/08/27 17:59:14;;;;;;;1.50;1.02;;;;;;;17.35;76.64;100035.56;10301827;28;20148;-61
2021/08/27 18:04:17;;;;;;;1.83;1.25;;;;;;;17.37;74.70;100039.75;10303413;28;20049;-61
2021/08/27 18:09:18;;;;;;;1.50;1.10;;;;;;;17.38;75.24;100045.97;10299129;28;20153;-62
2021/08/27 18:14:20;;;;;;;2.78;1.52;;;;;;;17.40;75.91;100043.94;10303116;28;20085;-62
2021/08/27 18:19:21;;;;;;;2.03;1.35;;;;;;;17.42;75.81;100041.94;10295229;28;20129;-62
2021/08/27 18:24:22;;;;;;;2.33;1.65;;;;;;;17.45;75.30;100049.66;10306021;28;20167;-62
2021/08/27 18:29:24;;;;;;;1.98;1.50;;;;;;;17.45;75.99;100057.72;10305554;28;20138;-62
2021/08/27 18:34:25;;;;;;;3.03;2.38;;;;;;;17.45;76.58;100063.09;10304586;28;20148;-62
2021/08/27 18:39:27;;;;;;;2.92;2.28;;;;;;;17.43;76.81;100075.88;10305044;28;20116;-63
2021/08/27 18:44:28;;;;;;;2.20;1.95;;;;;;;17.38;77.29;100072.88;10317275;28;20128;-62
2021/08/27 18:49:30;;;;;;;2.55;2.13;;;;;;;17.41;77.13;100076.03;10303422;28;20138;-62
2021/08/27 18:54:32;;;;;;;2.50;1.70;;;;;;;17.39;77.25;100085.31;10323523;28;20125;-62
2021/08/27 18:59:33;;;;;;;2.72;2.30;;;;;;;17.31;76.10;100089.72;10309996;28;20132;-63
2021/08/27 19:04:35;;;;;;;4.43;2.45;;;;;;;17.24;77.37;100099.47;10320265;28;20489;-63
2021/08/27 19:09:36;;;;;;;1.40;1.30;;;;;;;17.05;76.03;100097.97;10308595;28;20088;-63
2021/08/27 19:14:37;;;;;;;5.53;5.03;;;;;;;16.91;75.73;100098.66;10298987;28;20125;-64
2021/08/27 19:19:39;;;;;;;2.13;1.80;;;;;;;16.99;76.63;100105.88;10302847;28;20189;-64
2021/08/27 19:24:40;;;;;;;2.65;1.58;;;;;;;16.86;75.86;100104.50;10297614;28;20068;-63
2021/08/27 19:29:42;;;;;;;2.63;2.42;;;;;;;16.78;77.36;100116.13;10301387;28;20120;-63
2021/08/27 19:34:43;;;;;;;2.22;1.25;;;;;;;16.79;74.67;100120.47;10302716;28;20062;-63
2021/08/27 19:39:44;;;;;;;2.85;1.25;;;;;;;16.89;75.86;100114.97;10306778;28;20668;-59
2021/08/27 19:44:47;;;;;;;1.77;1.30;;;;;;;16.98;76.21;100123.00;10293494;28;20203;-60
2021/08/27 19:49:49;;;;;;;10.43;9.23;;;;;;;17.07;75.76;100119.31;10314571;28;20139;-58
2021/08/27 19:54:50;;;;;;;2.53;2.30;;;;;;;17.12;76.44;100127.72;10291717;28;20490;-59
2021/08/27 19:59:52;;;;;;;2.90;2.42;;;;;;;17.16;76.77;100126.38;10294247;28;20654;-58
2021/08/27 20:04:53;;;;;;;3.15;2.45;;;;;;;17.17;76.46;100124.53;10302644;28;20165;-58
2021/08/27 20:09:54;;;;;;;1.98;1.50;;;;;;;17.19;76.05;100128.72;10291112;28;20061;-58
2021/08/27 20:14:56;;;;;;;2.20;1.58;;;;;;;17.20;76.04;100130.38;10287894;28;20125;-58
2021/08/27 20:19:57;;;;;;;1.67;1.58;;;;;;;17.19;75.42;100133.25;10288924;28;20129;-58
2021/08/27 20:24:59;;;;;;;2.55;1.55;;;;;;;17.19;75.55;100134.13;10291103;28;20440;-58
2021/08/27 20:30:00;;;;;;;3.33;1.65;;;;;;;17.28;75.78;100141.16;10291729;28;20046;-59
2021/08/27 20:35:02;;;;;;;2.15;1.52;;;;;;;17.29;73.95;100142.84;10296847;28;20524;-59
2021/08/27 20:40:04;;;;;;;2.70;1.20;;;;;;;17.13;74.57;100140.16;10296950;28;20229;-59
2021/08/27 20:45:08;;;;;;;;;;;;;;;17.21;74.51;100148.22;10296734;28;20056;-58
2021/08/27 20:50:10;;;;;;;1.70;1.33;;;;;;;17.19;74.74;100144.88;10294602;28;19922;-58
2021/08/27 20:55:11;;;;;;;1.55;1.13;;;;;;;17.10;72.88;100146.72;10291099;28;20149;-62
2021/08/27 21:00:13;;;;;;;1.90;1.20;;;;;;;16.75;74.81;100155.91;10282574;28;20056;-63
2021/08/27 21:05:15;;;;;;;2.67;1.42;;;;;;;16.94;74.35;100147.56;10292858;28;20054;-62
2021/08/27 21:10:16;;;;;;;1.98;0.95;;;;;;;16.88;72.66;100150.09;10284235;28;20141;-62
2021/08/27 21:15:17;;;;;;;1.48;0.55;;;;;;;16.93;73.17;100155.78;10284756;28;20630;-61
2021/08/27 21:20:19;;;;;;;2.15;1.23;;;;;;;16.92;73.53;100154.97;10295953;28;20137;-59
2021/08/27 21:25:21;;;;;;;2.53;0.77;;;;;;;16.74;73.31;100146.19;10286470;28;20648;-61
2021/08/27 21:30:23;;;;;;;2.45;0.70;;;;;;;16.67;74.13;100155.91;10292297;28;20137;-59
2021/08/27 21:35:24;;;;;;;1.73;0.73;;;;;;;16.68;74.27;100163.81;10284206;28;20379;-60
2021/08/27 21:40:26;;;;;;;1.08;0.88;;;;;;;16.56;73.46;100149.84;10303105;28;20050;-59
2021/08/27 21:45:27;;;;;;;2.22;0.85;;;;;;;16.69;74.19;100153.88;10287544;28;20071;-61
2021/08/27 21:50:29;;;;;;;1.48;0.70;;;;;;;16.65;73.65;100149.84;10302061;28;20120;-61
2021/08/27 21:55:31;;;;;;;1.42;1.02;;;;;;;16.69;74.52;100159.25;10292340;28;20070;-61
2021/08/27 22:00:32;;;;;;;3.47;1.58;;;;;;;16.73;74.75;100156.06;10289332;28;20088;-61
2021/08/27 22:05:33;;;;;;;1.83;0.90;;;;;;;16.46;74.91;100156.38;10294779;28;20120;-61
2021/08/27 22:10:35;;;;;;;1.38;0.93;;;;;;;16.62;74.89;100156.41;10310969;28;20543;-62
2021/08/27 22:15:36;;;;;;;1.00;0.80;;;;;;;16.42;74.98;100162.06;10308539;28;20113;-60
2021/08/27 22:20:39;;;;;;;2.50;0.85;;;;;;;16.40;75.28;100157.88;10296812;28;20411;-65
2021/08/27 22:25:41;;;;;;;2.08;0.90;;;;;;;16.55;74.57;100158.91;10308792;28;20082;-61
2021/08/27 22:30:42;;;;;;;1.88;0.70;;;;;;;16.30;75.05;100152.63;10288789;28;20046;-60
2021/08/27 22:35:44;;;;;;;1.65;1.00;;;;;;;16.39;75.69;100158.84;10296935;28;20061;-62
2021/08/27 22:40:45;;;;;;;1.45;0.80;;;;;;;16.42;75.27;100167.44;10286554;28;20137;-62
2021/08/27 22:45:47;;;;;;;5.03;1.20;;;;;;;16.37;75.48;100156.34;10296013;28;20129;-61
2021/08/27 22:50:48;;;;;;;1.00;0.80;;;;;;;16.41;75.01;100156.88;10294730;28;20047;-65
2021/08/27 22:55:50;;;;;;;1.40;1.10;;;;;;;16.44;74.69;100156.53;10299669;28;20102;-61
2021/08/27 23:00:51;;;;;;;2.60;0.90;;;;;;;16.42;74.44;100169.28;10297398;28;20156;-61
2021/08/27 23:05:53;;;;;;;2.65;0.95;;;;;;;16.38;75.24;100168.78;10298040;28;20080;-61
2021/08/27 23:10:54;;;;;;;1.83;1.08;;;;;;;16.38;75.39;100166.09;10298890;28;20074;-61
2021/08/27 23:15:56;;;;;;;1.73;0.90;;;;;;;16.44;75.31;100167.28;10314650;28;20050;-61
2021/08/27 23:20:57;;;;;;;3.35;1.70;;;;;;;16.47;74.81;100169.63;10283178;28;20101;-63